sensor_id;sensor_type;location;lat;lon;timestamp;pressure;altitude;pressure_sealevel;temperature;humidity
6132;BME280;3097;42.692;23.278;2023-04-29T00:01:56;95070.91;;;8.64;67.47
6132;BME280;3097;42.692;23.278;2023-04-29T00:04:26;95075.28;;;8.63;67.29
6132;BME280;3097;42.692;23.278;2023-04-29T00:06:51;95052.59;;;8.47;67.37
6132;BME280;3097;42.692;23.278;2023-04-29T00:09:17;95074.50;;;8.56;67.09
6132;BME280;3097;42.692;23.278;2023-04-29T00:11:42;95081.44;;;8.49;67.22
6132;BME280;3097;42.692;23.278;2023-04-29T00:14:08;95081.06;;;8.45;66.73
6132;BME280;3097;42.692;23.278;2023-04-29T00:16:33;95083.81;;;8.44;66.32
6132;BME280;3097;42.692;23.278;2023-04-29T00:18:59;95053.81;;;8.25;66.42
6132;BME280;3097;42.692;23.278;2023-04-29T00:21:24;95082.66;;;8.40;66.28
6132;BME280;3097;42.692;23.278;2023-04-29T00:23:52;95074.53;;;8.43;66.10
6132;BME280;3097;42.692;23.278;2023-04-29T00:26:17;95049.09;;;8.22;66.40
6132;BME280;3097;42.692;23.278;2023-04-29T00:28:43;95086.22;;;8.39;66.27
6132;BME280;3097;42.692;23.278;2023-04-29T00:31:08;95076.94;;;8.31;66.17
6132;BME280;3097;42.692;23.278;2023-04-29T00:33:34;95085.25;;;8.33;65.66
6132;BME280;3097;42.692;23.278;2023-04-29T00:35:59;95042.78;;;8.04;65.92
6132;BME280;3097;42.692;23.278;2023-04-29T00:38:26;95078.72;;;8.31;65.84
6132;BME280;3097;42.692;23.278;2023-04-29T00:40:52;95078.09;;;8.29;66.14
6132;BME280;3097;42.692;23.278;2023-04-29T00:43:18;95078.09;;;8.29;66.97
6132;BME280;3097;42.692;23.278;2023-04-29T00:45:45;95081.47;;;8.29;66.71
6132;BME280;3097;42.692;23.278;2023-04-29T00:48:11;94975.00;;;7.54;67.51
6132;BME280;3097;42.692;23.278;2023-04-29T00:50:37;95033.34;;;7.92;67.06
6132;BME280;3097;42.692;23.278;2023-04-29T00:53:02;95073.59;;;8.18;67.40
6132;BME280;3097;42.692;23.278;2023-04-29T00:55:28;95027.06;;;7.88;67.80
6132;BME280;3097;42.692;23.278;2023-04-29T00:57:54;95051.94;;;7.87;67.81
6132;BME280;3097;42.692;23.278;2023-04-29T01:00:20;95067.91;;;7.96;68.48
6132;BME280;3097;42.692;23.278;2023-04-29T01:02:45;95055.84;;;7.90;69.01
6132;BME280;3097;42.692;23.278;2023-04-29T01:05:12;95047.59;;;7.81;69.07
6132;BME280;3097;42.692;23.278;2023-04-29T01:07:55;95056.28;;;7.80;69.41
6132;BME280;3097;42.692;23.278;2023-04-29T01:10:28;95046.03;;;7.73;69.73
6132;BME280;3097;42.692;23.278;2023-04-29T01:18:38;95034.19;;;7.53;70.77
6132;BME280;3097;42.692;23.278;2023-04-29T01:21:05;95040.91;;;7.54;70.94
6132;BME280;3097;42.692;23.278;2023-04-29T01:23:30;95035.78;;;7.47;71.46
6132;BME280;3097;42.692;23.278;2023-04-29T01:25:56;95042.28;;;7.43;71.54
6132;BME280;3097;42.692;23.278;2023-04-29T01:28:45;95043.47;;;7.47;71.58
6132;BME280;3097;42.692;23.278;2023-04-29T01:31:27;95042.06;;;7.45;71.50
6132;BME280;3097;42.692;23.278;2023-04-29T01:34:11;95031.25;;;7.36;71.25
6132;BME280;3097;42.692;23.278;2023-04-29T01:40:08;95043.66;;;7.32;71.08
6132;BME280;3097;42.692;23.278;2023-04-29T01:42:17;95043.84;;;7.31;71.22
6132;BME280;3097;42.692;23.278;2023-04-29T01:44:48;95038.91;;;7.29;71.39
6132;BME280;3097;42.692;23.278;2023-04-29T01:47:15;95040.91;;;7.27;70.94
6132;BME280;3097;42.692;23.278;2023-04-29T01:49:41;95041.88;;;7.26;71.08
6132;BME280;3097;42.692;23.278;2023-04-29T01:52:07;95038.34;;;7.27;70.96
6132;BME280;3097;42.692;23.278;2023-04-29T01:54:32;95035.78;;;7.21;71.21
6132;BME280;3097;42.692;23.278;2023-04-29T01:57:01;95039.31;;;7.26;71.35
6132;BME280;3097;42.692;23.278;2023-04-29T01:59:26;95045.03;;;7.22;71.32
6132;BME280;3097;42.692;23.278;2023-04-29T02:01:52;95033.00;;;7.16;71.72
6132;BME280;3097;42.692;23.278;2023-04-29T02:04:17;95041.88;;;7.20;72.01
6132;BME280;3097;42.692;23.278;2023-04-29T02:06:43;95026.50;;;7.07;72.49
6132;BME280;3097;42.692;23.278;2023-04-29T02:09:08;95043.44;;;7.14;72.43
6132;BME280;3097;42.692;23.278;2023-04-29T02:11:34;95043.84;;;7.05;72.22
6132;BME280;3097;42.692;23.278;2023-04-29T02:13:59;95052.31;;;7.05;72.16
6132;BME280;3097;42.692;23.278;2023-04-29T02:16:25;95050.91;;;6.96;72.43
6132;BME280;3097;42.692;23.278;2023-04-29T02:18:50;95045.97;;;6.94;72.58
6132;BME280;3097;42.692;23.278;2023-04-29T02:21:15;95027.81;;;6.83;72.59
6132;BME280;3097;42.692;23.278;2023-04-29T02:23:41;95047.38;;;6.97;72.19
6132;BME280;3097;42.692;23.278;2023-04-29T02:26:06;94993.50;;;6.64;71.81
6132;BME280;3097;42.692;23.278;2023-04-29T02:28:33;95044.81;;;6.97;72.00
6132;BME280;3097;42.692;23.278;2023-04-29T02:30:59;95041.63;;;6.95;72.08
6132;BME280;3097;42.692;23.278;2023-04-29T02:33:25;95044.00;;;6.96;72.19
6132;BME280;3097;42.692;23.278;2023-04-29T02:35:50;95045.78;;;6.96;72.18
6132;BME280;3097;42.692;23.278;2023-04-29T02:38:16;95048.53;;;6.94;72.27
6132;BME280;3097;42.692;23.278;2023-04-29T02:40:44;95045.59;;;6.91;72.25
6132;BME280;3097;42.692;23.278;2023-04-29T02:43:10;95039.84;;;6.89;72.08
6132;BME280;3097;42.692;23.278;2023-04-29T02:45:37;95040.84;;;6.88;72.46
6132;BME280;3097;42.692;23.278;2023-04-29T02:48:03;95023.25;;;6.72;72.26
6132;BME280;3097;42.692;23.278;2023-04-29T02:50:29;95041.19;;;6.78;72.16
6132;BME280;3097;42.692;23.278;2023-04-29T02:52:54;95020.25;;;6.55;72.45
6132;BME280;3097;42.692;23.278;2023-04-29T02:55:20;95049.47;;;6.74;72.81
6132;BME280;3097;42.692;23.278;2023-04-29T02:57:45;95047.47;;;6.63;73.37
6132;BME280;3097;42.692;23.278;2023-04-29T03:00:11;95070.34;;;6.71;72.93
6132;BME280;3097;42.692;23.278;2023-04-29T03:02:37;95066.00;;;6.71;73.06
6132;BME280;3097;42.692;23.278;2023-04-29T03:05:03;95056.34;;;6.67;73.38
6132;BME280;3097;42.692;23.278;2023-04-29T03:07:29;95060.06;;;6.64;72.90
6132;BME280;3097;42.692;23.278;2023-04-29T03:09:55;95064.03;;;6.67;72.83
6132;BME280;3097;42.692;23.278;2023-04-29T03:12:21;95023.34;;;6.37;72.83
6132;BME280;3097;42.692;23.278;2023-04-29T03:14:46;95066.59;;;6.60;73.05
6132;BME280;3097;42.692;23.278;2023-04-29T03:17:12;95057.69;;;6.56;72.95
6132;BME280;3097;42.692;23.278;2023-04-29T03:19:38;95063.22;;;6.53;73.18
6132;BME280;3097;42.692;23.278;2023-04-29T03:22:03;95069.69;;;6.55;73.27
6132;BME280;3097;42.692;23.278;2023-04-29T03:24:29;95045.94;;;6.27;73.27
6132;BME280;3097;42.692;23.278;2023-04-29T03:26:54;95079.31;;;6.47;73.62
6132;BME280;3097;42.692;23.278;2023-04-29T03:29:20;95089.53;;;6.40;74.48
6132;BME280;3097;42.692;23.278;2023-04-29T03:31:45;95090.91;;;6.36;74.28
6132;BME280;3097;42.692;23.278;2023-04-29T03:34:11;95094.63;;;6.34;74.63
6132;BME280;3097;42.692;23.278;2023-04-29T03:36:38;95060.28;;;6.15;74.56
6132;BME280;3097;42.692;23.278;2023-04-29T03:39:04;95098.56;;;6.36;74.68
6132;BME280;3097;42.692;23.278;2023-04-29T03:41:30;95090.91;;;6.36;74.61
6132;BME280;3097;42.692;23.278;2023-04-29T03:43:55;95096.63;;;6.38;74.68
6132;BME280;3097;42.692;23.278;2023-04-29T03:46:25;95069.00;;;6.34;74.35
6132;BME280;3097;42.692;23.278;2023-04-29T03:48:51;95059.97;;;6.31;74.09
6132;BME280;3097;42.692;23.278;2023-04-29T03:51:16;95064.53;;;6.42;74.60
6132;BME280;3097;42.692;23.278;2023-04-29T03:53:43;95061.97;;;6.42;74.82
6132;BME280;3097;42.692;23.278;2023-04-29T03:56:08;95088.06;;;6.66;74.82
6132;BME280;3097;42.692;23.278;2023-04-29T03:58:33;95071.50;;;6.61;74.82
6132;BME280;3097;42.692;23.278;2023-04-29T04:00:59;95087.50;;;6.77;74.69
6132;BME280;3097;42.692;23.278;2023-04-29T04:03:24;95082.97;;;6.79;74.15
6132;BME280;3097;42.692;23.278;2023-04-29T04:05:51;95090.91;;;6.84;74.56
6132;BME280;3097;42.692;23.278;2023-04-29T04:08:17;95092.09;;;6.88;74.07
6132;BME280;3097;42.692;23.278;2023-04-29T04:10:42;95093.66;;;6.89;74.63
6132;BME280;3097;42.692;23.278;2023-04-29T04:13:08;95093.47;;;6.90;74.95
6132;BME280;3097;42.692;23.278;2023-04-29T04:15:33;95101.38;;;7.02;74.41
6132;BME280;3097;42.692;23.278;2023-04-29T04:18:00;95100.84;;;7.13;74.00
6132;BME280;3097;42.692;23.278;2023-04-29T04:20:25;95096.88;;;7.17;73.56
6132;BME280;3097;42.692;23.278;2023-04-29T04:22:51;95102.44;;;7.21;73.96
6132;BME280;3097;42.692;23.278;2023-04-29T04:25:19;95048.34;;;7.03;73.78
6132;BME280;3097;42.692;23.278;2023-04-29T04:27:44;95074.44;;;7.32;72.99
6132;BME280;3097;42.692;23.278;2023-04-29T04:30:10;95065.16;;;7.38;72.38
6132;BME280;3097;42.692;23.278;2023-04-29T04:32:36;95065.97;;;7.52;72.02
6132;BME280;3097;42.692;23.278;2023-04-29T04:35:03;95085.31;;;7.74;71.77
6132;BME280;3097;42.692;23.278;2023-04-29T04:37:29;95097.34;;;7.87;71.07
6132;BME280;3097;42.692;23.278;2023-04-29T04:39:54;95085.91;;;7.89;70.50
6132;BME280;3097;42.692;23.278;2023-04-29T04:42:21;95057.44;;;7.84;70.28
6132;BME280;3097;42.692;23.278;2023-04-29T04:44:46;95091.16;;;8.14;69.79
6132;BME280;3097;42.692;23.278;2023-04-29T04:47:12;95097.88;;;8.22;68.96
6132;BME280;3097;42.692;23.278;2023-04-29T04:49:37;95095.28;;;8.35;68.95
6132;BME280;3097;42.692;23.278;2023-04-29T04:52:03;95094.28;;;8.49;68.21
6132;BME280;3097;42.692;23.278;2023-04-29T04:54:28;95089.69;;;8.58;67.07
6132;BME280;3097;42.692;23.278;2023-04-29T04:56:54;95076.66;;;8.59;66.57
6132;BME280;3097;42.692;23.278;2023-04-29T04:59:19;95086.31;;;8.70;64.70
6132;BME280;3097;42.692;23.278;2023-04-29T05:01:45;95061.44;;;8.64;64.36
6132;BME280;3097;42.692;23.278;2023-04-29T05:04:10;95077.28;;;8.99;63.42
6132;BME280;3097;42.692;23.278;2023-04-29T05:06:35;95046.03;;;8.96;63.41
6132;BME280;3097;42.692;23.278;2023-04-29T05:09:01;95073.09;;;9.36;64.20
6132;BME280;3097;42.692;23.278;2023-04-29T05:11:27;95075.31;;;9.57;62.77
6132;BME280;3097;42.692;23.278;2023-04-29T05:13:53;95040.34;;;9.50;62.39
6132;BME280;3097;42.692;23.278;2023-04-29T05:16:18;95055.06;;;9.67;61.41
6132;BME280;3097;42.692;23.278;2023-04-29T05:18:43;95051.78;;;9.79;62.15
6132;BME280;3097;42.692;23.278;2023-04-29T05:21:10;95059.03;;;9.88;61.90
6132;BME280;3097;42.692;23.278;2023-04-29T05:23:36;95063.97;;;9.90;61.87
6132;BME280;3097;42.692;23.278;2023-04-29T05:26:01;95031.97;;;9.79;61.02
6132;BME280;3097;42.692;23.278;2023-04-29T05:28:27;95057.69;;;10.04;61.74
6132;BME280;3097;42.692;23.278;2023-04-29T05:30:52;95051.59;;;9.98;61.79
6132;BME280;3097;42.692;23.278;2023-04-29T05:33:18;95058.38;;;10.18;61.90
6132;BME280;3097;42.692;23.278;2023-04-29T05:35:44;95021.50;;;9.99;61.51
6132;BME280;3097;42.692;23.278;2023-04-29T05:38:10;95031.63;;;10.19;60.56
6132;BME280;3097;42.692;23.278;2023-04-29T05:40:36;95050.00;;;10.40;59.88
6132;BME280;3097;42.692;23.278;2023-04-29T05:43:01;95037.69;;;10.42;59.37
6132;BME280;3097;42.692;23.278;2023-04-29T05:45:26;95063.38;;;10.67;59.64
6132;BME280;3097;42.692;23.278;2023-04-29T05:47:52;95053.41;;;10.89;59.98
6132;BME280;3097;42.692;23.278;2023-04-29T05:50:17;95029.88;;;10.97;58.44
6132;BME280;3097;42.692;23.278;2023-04-29T05:52:43;95068.59;;;11.39;58.40
6132;BME280;3097;42.692;23.278;2023-04-29T05:55:08;95045.13;;;11.52;57.84
6132;BME280;3097;42.692;23.278;2023-04-29T05:57:34;95024.75;;;11.97;56.46
6132;BME280;3097;42.692;23.278;2023-04-29T05:59:59;95062.59;;;13.18;52.92
6132;BME280;3097;42.692;23.278;2023-04-29T06:02:25;95052.19;;;14.73;49.21
6132;BME280;3097;42.692;23.278;2023-04-29T06:04:51;95061.94;;;16.38;46.85
6132;BME280;3097;42.692;23.278;2023-04-29T06:07:17;95054.50;;;17.90;42.62
6132;BME280;3097;42.692;23.278;2023-04-29T06:09:43;95036.56;;;19.32;39.03
6132;BME280;3097;42.692;23.278;2023-04-29T06:12:09;95043.63;;;20.57;37.09
6132;BME280;3097;42.692;23.278;2023-04-29T06:14:35;95036.66;;;22.03;35.37
6132;BME280;3097;42.692;23.278;2023-04-29T06:17:00;95035.69;;;23.44;32.29
6132;BME280;3097;42.692;23.278;2023-04-29T06:19:26;95041.34;;;24.49;30.09
6132;BME280;3097;42.692;23.278;2023-04-29T06:21:51;95034.16;;;24.80;30.01
6132;BME280;3097;42.692;23.278;2023-04-29T06:24:17;95027.69;;;25.12;28.94
6132;BME280;3097;42.692;23.278;2023-04-29T06:26:42;95034.28;;;25.66;26.58
6132;BME280;3097;42.692;23.278;2023-04-29T06:29:08;95041.69;;;25.21;26.34
6132;BME280;3097;42.692;23.278;2023-04-29T06:31:33;95027.44;;;25.48;26.82
6132;BME280;3097;42.692;23.278;2023-04-29T06:33:59;95032.63;;;26.17;27.07
6132;BME280;3097;42.692;23.278;2023-04-29T06:36:24;95026.78;;;26.49;26.16
6132;BME280;3097;42.692;23.278;2023-04-29T06:38:51;95024.59;;;25.96;24.80
6132;BME280;3097;42.692;23.278;2023-04-29T06:41:17;94998.25;;;25.10;25.70
6132;BME280;3097;42.692;23.278;2023-04-29T06:43:42;95027.59;;;25.77;27.36
6132;BME280;3097;42.692;23.278;2023-04-29T06:46:08;94995.44;;;25.58;26.63
6132;BME280;3097;42.692;23.278;2023-04-29T06:48:34;95023.38;;;25.16;26.31
6132;BME280;3097;42.692;23.278;2023-04-29T06:50:59;95035.53;;;24.38;26.79
6132;BME280;3097;42.692;23.278;2023-04-29T06:53:25;95032.75;;;23.81;29.13
6132;BME280;3097;42.692;23.278;2023-04-29T06:55:50;95033.69;;;23.85;29.09
6132;BME280;3097;42.692;23.278;2023-04-29T06:58:17;95030.53;;;23.75;28.68
6132;BME280;3097;42.692;23.278;2023-04-29T07:00:44;95032.59;;;23.42;29.21
6132;BME280;3097;42.692;23.278;2023-04-29T07:03:11;95028.38;;;23.19;29.92
6132;BME280;3097;42.692;23.278;2023-04-29T07:05:39;95014.84;;;23.11;29.78
6132;BME280;3097;42.692;23.278;2023-04-29T07:08:07;95026.44;;;23.10;31.28
6132;BME280;3097;42.692;23.278;2023-04-29T07:10:33;94998.16;;;22.66;28.88
6132;BME280;3097;42.692;23.278;2023-04-29T07:12:58;95013.91;;;21.79;29.01
6132;BME280;3097;42.692;23.278;2023-04-29T07:15:25;95016.66;;;21.37;32.00
6132;BME280;3097;42.692;23.278;2023-04-29T07:17:51;95011.97;;;21.15;31.55
6132;BME280;3097;42.692;23.278;2023-04-29T07:20:17;95017.97;;;21.15;33.49
6132;BME280;3097;42.692;23.278;2023-04-29T07:22:42;95021.16;;;21.69;35.28
6132;BME280;3097;42.692;23.278;2023-04-29T07:25:08;95012.84;;;22.26;33.71
6132;BME280;3097;42.692;23.278;2023-04-29T07:27:34;95020.53;;;22.50;30.33
6132;BME280;3097;42.692;23.278;2023-04-29T07:30:00;95024.25;;;22.76;32.29
6132;BME280;3097;42.692;23.278;2023-04-29T07:32:26;95005.06;;;22.62;29.83
6132;BME280;3097;42.692;23.278;2023-04-29T07:34:51;95018.59;;;22.83;31.39
6132;BME280;3097;42.692;23.278;2023-04-29T07:37:17;95007.81;;;22.85;30.57
6132;BME280;3097;42.692;23.278;2023-04-29T07:39:42;95014.22;;;22.92;29.23
6132;BME280;3097;42.692;23.278;2023-04-29T07:42:08;95012.38;;;22.93;29.07
6132;BME280;3097;42.692;23.278;2023-04-29T07:44:33;95015.44;;;22.13;28.44
6132;BME280;3097;42.692;23.278;2023-04-29T07:46:59;95009.94;;;21.95;30.67
6132;BME280;3097;42.692;23.278;2023-04-29T07:49:24;95003.38;;;22.12;31.68
6132;BME280;3097;42.692;23.278;2023-04-29T07:51:50;95005.03;;;22.08;30.12
6132;BME280;3097;42.692;23.278;2023-04-29T07:54:16;95005.72;;;21.99;29.86
6132;BME280;3097;42.692;23.278;2023-04-29T07:56:43;94997.56;;;22.01;30.47
6132;BME280;3097;42.692;23.278;2023-04-29T07:59:08;94997.16;;;22.08;29.96
6132;BME280;3097;42.692;23.278;2023-04-29T08:01:33;94991.03;;;22.26;28.88
6132;BME280;3097;42.692;23.278;2023-04-29T08:03:59;94988.19;;;21.95;26.72
6132;BME280;3097;42.692;23.278;2023-04-29T08:06:24;94997.06;;;21.80;28.83
6132;BME280;3097;42.692;23.278;2023-04-29T08:08:50;94982.31;;;21.19;29.78
6132;BME280;3097;42.692;23.278;2023-04-29T08:11:19;94982.31;;;21.19;30.90
6132;BME280;3097;42.692;23.278;2023-04-29T08:13:45;94970.50;;;21.36;30.04
6132;BME280;3097;42.692;23.278;2023-04-29T08:16:11;94975.09;;;21.44;30.54
6132;BME280;3097;42.692;23.278;2023-04-29T08:18:38;94984.41;;;21.69;30.10
6132;BME280;3097;42.692;23.278;2023-04-29T08:21:03;94968.97;;;21.81;32.27
6132;BME280;3097;42.692;23.278;2023-04-29T08:23:28;94980.75;;;21.83;30.55
6132;BME280;3097;42.692;23.278;2023-04-29T08:25:54;94982.69;;;21.78;30.43
6132;BME280;3097;42.692;23.278;2023-04-29T08:28:20;94983.84;;;21.72;30.46
6132;BME280;3097;42.692;23.278;2023-04-29T08:30:47;94975.75;;;22.00;31.48
6132;BME280;3097;42.692;23.278;2023-04-29T08:33:12;94976.34;;;22.11;30.76
6132;BME280;3097;42.692;23.278;2023-04-29T08:35:39;94978.88;;;22.44;30.72
6132;BME280;3097;42.692;23.278;2023-04-29T08:38:05;94966.13;;;22.51;29.77
6132;BME280;3097;42.692;23.278;2023-04-29T08:40:42;94975.38;;;22.75;30.95
6132;BME280;3097;42.692;23.278;2023-04-29T08:43:09;94965.16;;;22.60;29.95
6132;BME280;3097;42.692;23.278;2023-04-29T08:45:35;94968.59;;;22.47;28.53
6132;BME280;3097;42.692;23.278;2023-04-29T08:48:05;94964.88;;;22.48;30.31
6132;BME280;3097;42.692;23.278;2023-04-29T08:50:31;94961.63;;;22.78;30.54
6132;BME280;3097;42.692;23.278;2023-04-29T08:53:01;94961.59;;;23.06;28.68
6132;BME280;3097;42.692;23.278;2023-04-29T08:55:27;94943.75;;;23.03;30.10
6132;BME280;3097;42.692;23.278;2023-04-29T08:57:53;94962.94;;;23.03;27.68
6132;BME280;3097;42.692;23.278;2023-04-29T09:00:19;94958.06;;;22.74;27.35
6132;BME280;3097;42.692;23.278;2023-04-29T09:02:53;94960.31;;;22.40;28.49
6132;BME280;3097;42.692;23.278;2023-04-29T09:05:19;94952.03;;;22.33;29.64
6132;BME280;3097;42.692;23.278;2023-04-29T09:07:44;94956.81;;;22.17;27.94
6132;BME280;3097;42.692;23.278;2023-04-29T09:10:11;94942.69;;;21.99;29.84
6132;BME280;3097;42.692;23.278;2023-04-29T09:12:37;94953.84;;;21.91;30.65
6132;BME280;3097;42.692;23.278;2023-04-29T09:15:36;94952.44;;;21.80;31.54
6132;BME280;3097;42.692;23.278;2023-04-29T09:21:34;94950.41;;;20.75;30.88
6132;BME280;3097;42.692;23.278;2023-04-29T09:24:01;94955.63;;;20.32;31.14
6132;BME280;3097;42.692;23.278;2023-04-29T09:26:35;94948.50;;;20.14;31.41
6132;BME280;3097;42.692;23.278;2023-04-29T09:29:06;94943.75;;;20.16;31.54
6132;BME280;3097;42.692;23.278;2023-04-29T09:31:32;94939.38;;;20.35;34.02
6132;BME280;3097;42.692;23.278;2023-04-29T09:33:57;94923.41;;;20.56;34.14
6132;BME280;3097;42.692;23.278;2023-04-29T09:36:50;94930.56;;;20.69;32.05
6132;BME280;3097;42.692;23.278;2023-04-29T09:39:22;94927.88;;;20.74;32.37
6132;BME280;3097;42.692;23.278;2023-04-29T09:44:40;94925.81;;;20.52;31.07
6132;BME280;3097;42.692;23.278;2023-04-29T09:47:10;94927.78;;;20.41;30.61
6132;BME280;3097;42.692;23.278;2023-04-29T09:49:41;94922.44;;;20.28;31.43
6132;BME280;3097;42.692;23.278;2023-04-29T09:52:12;94914.06;;;20.26;30.92
6132;BME280;3097;42.692;23.278;2023-04-29T09:54:39;94908.16;;;20.39;31.90
6132;BME280;3097;42.692;23.278;2023-04-29T09:57:06;94911.00;;;20.61;31.59
6132;BME280;3097;42.692;23.278;2023-04-29T09:59:39;94907.56;;;20.66;31.59
6132;BME280;3097;42.692;23.278;2023-04-29T10:02:15;94899.72;;;20.66;31.74
6132;BME280;3097;42.692;23.278;2023-04-29T10:04:47;94884.88;;;20.37;31.44
6132;BME280;3097;42.692;23.278;2023-04-29T10:07:18;94893.50;;;20.38;31.06
6132;BME280;3097;42.692;23.278;2023-04-29T10:09:45;94888.19;;;20.00;32.04
6132;BME280;3097;42.692;23.278;2023-04-29T10:12:15;94885.19;;;19.88;31.19
6132;BME280;3097;42.692;23.278;2023-04-29T10:14:47;94883.88;;;19.91;31.28
6132;BME280;3097;42.692;23.278;2023-04-29T10:17:17;94879.00;;;20.03;32.62
6132;BME280;3097;42.692;23.278;2023-04-29T10:19:57;94809.91;;;19.61;33.04
6132;BME280;3097;42.692;23.278;2023-04-29T10:22:35;94868.25;;;20.04;32.65
6132;BME280;3097;42.692;23.278;2023-04-29T10:25:01;94882.94;;;20.24;32.13
6132;BME280;3097;42.692;23.278;2023-04-29T10:27:28;94876.72;;;20.20;32.04
6132;BME280;3097;42.692;23.278;2023-04-29T10:29:57;94882.88;;;20.29;32.69
6132;BME280;3097;42.692;23.278;2023-04-29T10:32:23;94877.06;;;20.32;32.82
6132;BME280;3097;42.692;23.278;2023-04-29T10:34:51;94879.06;;;20.22;31.42
6132;BME280;3097;42.692;23.278;2023-04-29T10:37:18;94876.00;;;20.15;30.27
6132;BME280;3097;42.692;23.278;2023-04-29T10:42:44;94878.66;;;19.86;31.18
6132;BME280;3097;42.692;23.278;2023-04-29T10:45:29;94880.56;;;19.56;31.82
6132;BME280;3097;42.692;23.278;2023-04-29T10:53:16;94866.09;;;19.35;33.73
6132;BME280;3097;42.692;23.278;2023-04-29T10:55:46;94867.91;;;19.34;33.14
6132;BME280;3097;42.692;23.278;2023-04-29T10:58:44;94868.25;;;19.57;32.11
6132;BME280;3097;42.692;23.278;2023-04-29T11:01:14;94871.13;;;19.55;32.00
6132;BME280;3097;42.692;23.278;2023-04-29T11:03:55;94865.50;;;19.43;31.04
6132;BME280;3097;42.692;23.278;2023-04-29T11:09:10;94867.59;;;19.41;29.13
6132;BME280;3097;42.692;23.278;2023-04-29T11:14:28;94845.34;;;19.44;29.58
6132;BME280;3097;42.692;23.278;2023-04-29T11:17:20;94863.38;;;19.45;30.20
6132;BME280;3097;42.692;23.278;2023-04-29T11:19:51;94858.19;;;19.40;28.92
6132;BME280;3097;42.692;23.278;2023-04-29T11:22:27;94860.91;;;19.30;27.24
6132;BME280;3097;42.692;23.278;2023-04-29T11:25:06;94869.22;;;19.03;29.41
6132;BME280;3097;42.692;23.278;2023-04-29T11:27:38;94858.09;;;18.92;29.69
6132;BME280;3097;42.692;23.278;2023-04-29T11:30:06;94859.41;;;18.90;29.13
6132;BME280;3097;42.692;23.278;2023-04-29T11:32:34;94856.84;;;18.85;30.25
6132;BME280;3097;42.692;23.278;2023-04-29T11:35:17;94852.09;;;18.92;30.68
6132;BME280;3097;42.692;23.278;2023-04-29T11:37:44;94843.66;;;19.00;29.36
6132;BME280;3097;42.692;23.278;2023-04-29T11:40:11;94848.31;;;19.08;29.71
6132;BME280;3097;42.692;23.278;2023-04-29T11:42:47;94849.53;;;19.16;29.57
6132;BME280;3097;42.692;23.278;2023-04-29T11:45:15;94837.59;;;19.05;30.55
6132;BME280;3097;42.692;23.278;2023-04-29T11:47:43;94851.41;;;19.10;29.60
6132;BME280;3097;42.692;23.278;2023-04-29T11:50:11;94840.63;;;18.88;30.16
6132;BME280;3097;42.692;23.278;2023-04-29T11:52:38;94840.88;;;18.91;28.48
6132;BME280;3097;42.692;23.278;2023-04-29T11:55:07;94844.78;;;18.94;29.39
6132;BME280;3097;42.692;23.278;2023-04-29T11:57:33;94851.00;;;18.98;29.83
6132;BME280;3097;42.692;23.278;2023-04-29T11:59:59;94812.63;;;18.60;30.04
6132;BME280;3097;42.692;23.278;2023-04-29T12:02:31;94843.34;;;18.73;31.18
6132;BME280;3097;42.692;23.278;2023-04-29T12:04:58;94844.69;;;18.70;29.91
6132;BME280;3097;42.692;23.278;2023-04-29T12:07:25;94826.03;;;18.43;31.42
6132;BME280;3097;42.692;23.278;2023-04-29T12:09:51;94848.56;;;18.29;32.50
6132;BME280;3097;42.692;23.278;2023-04-29T12:12:16;94842.81;;;18.32;34.19
6132;BME280;3097;42.692;23.278;2023-04-29T12:14:42;94842.81;;;18.32;34.04
6132;BME280;3097;42.692;23.278;2023-04-29T12:17:08;94832.91;;;18.29;33.35
6132;BME280;3097;42.692;23.278;2023-04-29T12:19:35;94840.06;;;18.52;33.78
6132;BME280;3097;42.692;23.278;2023-04-29T12:22:04;94826.41;;;18.65;32.78
6132;BME280;3097;42.692;23.278;2023-04-29T12:24:36;94827.53;;;18.54;32.74
6132;BME280;3097;42.692;23.278;2023-04-29T12:27:02;94834.38;;;18.45;33.13
6132;BME280;3097;42.692;23.278;2023-04-29T12:29:30;94822.72;;;18.32;32.89
6132;BME280;3097;42.692;23.278;2023-04-29T12:31:56;94787.06;;;18.12;32.41
6132;BME280;3097;42.692;23.278;2023-04-29T12:34:29;94826.53;;;18.45;34.88
6132;BME280;3097;42.692;23.278;2023-04-29T12:36:55;94822.34;;;18.49;32.86
6132;BME280;3097;42.692;23.278;2023-04-29T12:39:22;94787.28;;;18.21;31.64
6132;BME280;3097;42.692;23.278;2023-04-29T12:41:47;94815.63;;;18.38;33.34
6132;BME280;3097;42.692;23.278;2023-04-29T12:44:14;94820.63;;;18.34;34.62
6132;BME280;3097;42.692;23.278;2023-04-29T12:46:40;94810.03;;;18.54;36.02
6132;BME280;3097;42.692;23.278;2023-04-29T12:49:06;94816.28;;;18.64;35.61
6132;BME280;3097;42.692;23.278;2023-04-29T12:51:33;94810.69;;;18.75;35.00
6132;BME280;3097;42.692;23.278;2023-04-29T12:54:01;94807.94;;;18.90;34.50
6132;BME280;3097;42.692;23.278;2023-04-29T12:56:28;94816.19;;;19.03;34.27
6132;BME280;3097;42.692;23.278;2023-04-29T12:58:53;94812.91;;;19.21;34.42
6132;BME280;3097;42.692;23.278;2023-04-29T13:01:19;94808.66;;;19.25;32.79
6132;BME280;3097;42.692;23.278;2023-04-29T13:03:44;94808.50;;;19.16;33.51
6132;BME280;3097;42.692;23.278;2023-04-29T13:06:10;94812.84;;;19.26;33.72
6132;BME280;3097;42.692;23.278;2023-04-29T13:08:35;94801.25;;;19.37;33.24
6132;BME280;3097;42.692;23.278;2023-04-29T13:11:02;94803.28;;;19.40;34.98
6132;BME280;3097;42.692;23.278;2023-04-29T13:13:27;94812.91;;;19.50;34.53
6132;BME280;3097;42.692;23.278;2023-04-29T13:15:53;94801.31;;;19.56;33.67
6132;BME280;3097;42.692;23.278;2023-04-29T13:18:18;94774.41;;;19.26;33.85
6132;BME280;3097;42.692;23.278;2023-04-29T13:20:44;94802.59;;;19.58;32.85
6132;BME280;3097;42.692;23.278;2023-04-29T13:23:10;94793.47;;;19.56;32.84
6132;BME280;3097;42.692;23.278;2023-04-29T13:25:36;94790.16;;;19.50;32.89
6132;BME280;3097;42.692;23.278;2023-04-29T13:28:02;94796.94;;;19.51;32.58
6132;BME280;3097;42.692;23.278;2023-04-29T13:30:29;94793.72;;;19.59;33.40
6132;BME280;3097;42.692;23.278;2023-04-29T13:32:55;94790.50;;;19.62;34.74
6132;BME280;3097;42.692;23.278;2023-04-29T13:35:20;94792.81;;;19.69;35.11
6132;BME280;3097;42.692;23.278;2023-04-29T13:37:45;94788.22;;;19.80;35.71
6132;BME280;3097;42.692;23.278;2023-04-29T13:40:12;94788.81;;;19.77;34.67
6132;BME280;3097;42.692;23.278;2023-04-29T13:42:38;94784.00;;;19.84;34.34
6132;BME280;3097;42.692;23.278;2023-04-29T13:45:03;94786.13;;;19.82;35.31